createdAt,value
2019-03-15T00:02:23.115Z,4.51
2019-03-15T00:07:30.785Z,4.28
2019-03-15T00:12:38.430Z,3.96
2019-03-15T00:17:46.055Z,3.97
2019-03-15T00:22:53.648Z,4.07
2019-03-15T00:28:01.393Z,3.98
2019-03-15T00:33:09.025Z,4.46
2019-03-15T00:38:16.760Z,4.20
2019-03-15T00:43:24.400Z,4.40
2019-03-15T00:48:32.109Z,4.84
2019-03-15T00:53:39.751Z,4.65
2019-03-15T00:58:47.385Z,4.99
2019-03-15T01:03:55.014Z,4.60
2019-03-15T01:09:02.696Z,4.70
2019-03-15T01:14:10.329Z,5.18
2019-03-15T01:19:17.987Z,4.69
2019-03-15T01:24:25.597Z,4.81
2019-03-15T01:29:33.278Z,5.78
2019-03-15T01:34:40.877Z,5.16
2019-03-15T01:39:48.584Z,5.26
2019-03-15T01:44:56.180Z,4.69
2019-03-15T01:50:03.857Z,5.54
2019-03-15T01:55:11.474Z,4.77
2019-03-15T02:00:19.131Z,5.12
2019-03-15T02:05:26.761Z,4.58
2019-03-15T02:10:34.474Z,4.80
2019-03-15T02:15:42.174Z,4.80
2019-03-15T02:20:49.811Z,5.12
2019-03-15T02:25:57.441Z,4.85
2019-03-15T02:31:05.122Z,4.49
2019-03-15T02:36:13.932Z,4.70
2019-03-15T02:41:19.872Z,4.66
2019-03-15T02:46:27.489Z,4.45
2019-03-15T02:51:35.167Z,4.30
2019-03-15T02:56:42.873Z,4.17
2019-03-15T03:01:50.472Z,4.20
2019-03-15T03:06:58.079Z,4.10
2019-03-15T03:12:05.776Z,4.07
2019-03-15T03:17:13.569Z,3.83
2019-03-15T03:22:20.576Z,4.04
2019-03-15T03:27:28.169Z,4.48
2019-03-15T03:32:35.814Z,4.21
2019-03-15T03:37:45.161Z,4.77
2019-03-15T03:42:50.643Z,4.87
2019-03-15T03:47:58.289Z,4.55
2019-03-15T03:53:05.975Z,4.23
2019-03-15T03:58:13.567Z,4.02
2019-03-15T04:03:21.283Z,4.13
2019-03-15T04:08:28.915Z,3.89
2019-03-15T04:13:36.766Z,3.95
2019-03-15T04:18:44.247Z,3.93
2019-03-15T04:23:51.883Z,3.59
2019-03-15T04:29:02.781Z,3.63
2019-03-15T04:34:00.450Z,3.78
2019-03-15T04:39:08.102Z,3.84
2019-03-15T04:44:15.711Z,3.77
2019-03-15T04:49:23.337Z,3.36
2019-03-15T04:54:30.984Z,3.50
2019-03-15T04:59:38.594Z,3.84
2019-03-15T05:04:46.290Z,3.66
2019-03-15T05:09:53.895Z,3.64
2019-03-15T05:15:01.530Z,3.69
2019-03-15T05:20:09.137Z,3.38
2019-03-15T05:25:16.847Z,3.75
2019-03-15T05:30:24.474Z,3.96
2019-03-15T05:35:32.130Z,3.64
2019-03-15T05:40:39.747Z,3.64
2019-03-15T05:45:47.442Z,3.72
2019-03-15T05:50:55.037Z,3.60
2019-03-15T05:56:02.713Z,4.16
2019-03-15T06:01:10.403Z,4.18
2019-03-15T06:06:18.102Z,4.31
2019-03-15T06:11:25.718Z,4.31
2019-03-15T06:16:33.398Z,4.08
2019-03-15T06:21:41.009Z,4.33
2019-03-15T06:26:48.636Z,5.06
2019-03-15T06:31:56.241Z,4.45
2019-03-15T06:37:03.943Z,4.11
2019-03-15T06:42:11.567Z,4.89
2019-03-15T06:47:19.231Z,4.19
2019-03-15T06:52:26.870Z,3.97
2019-03-15T06:57:34.522Z,5.27
2019-03-15T07:02:42.117Z,5.22
2019-03-15T07:07:49.931Z,4.25
2019-03-15T07:12:57.514Z,7.32
2019-03-15T07:18:05.211Z,5.71
2019-03-15T07:23:12.791Z,5.11
2019-03-15T07:28:20.446Z,4.85
2019-03-15T07:33:28.034Z,6.69
2019-03-15T07:38:35.710Z,5.63
2019-03-15T07:43:43.336Z,5.25
2019-03-15T07:48:51.018Z,5.09
2019-03-15T07:53:58.634Z,4.91
2019-03-15T07:59:06.316Z,5.10
2019-03-15T08:04:17.207Z,6.56
2019-03-15T08:09:21.150Z,5.76
2019-03-15T08:14:28.731Z,5.47
2019-03-15T08:19:36.359Z,5.52
2019-03-15T08:24:51.431Z,5.22
2019-03-15T08:29:52.786Z,4.88
2019-03-15T08:35:03.587Z,4.64
2019-03-15T08:40:07.531Z,4.86
2019-03-15T08:45:15.145Z,5.08
2019-03-15T08:50:24.564Z,5.04
2019-03-15T08:55:30.037Z,5.97
2019-03-15T09:00:37.685Z,7.88
2019-03-15T09:05:45.310Z,6.02
2019-03-15T09:10:52.949Z,5.70
2019-03-15T09:16:00.581Z,6.11
2019-03-15T09:21:08.346Z,5.33
2019-03-15T09:26:15.940Z,5.56
2019-03-15T09:31:23.594Z,6.14
2019-03-15T09:36:33.830Z,8.88
2019-03-15T09:41:40.209Z,7.53
2019-03-15T09:46:45.546Z,7.16
2019-03-15T09:51:53.195Z,7.29
2019-03-15T09:57:00.842Z,7.67
2019-03-15T10:02:08.471Z,9.37
2019-03-15T10:07:16.097Z,11.04
2019-03-15T10:12:26.842Z,8.62
2019-03-15T10:17:24.469Z,8.98
2019-03-15T10:22:32.175Z,9.35
2019-03-15T10:27:39.826Z,10.35
2019-03-15T10:32:47.461Z,11.01
2019-03-15T10:37:55.055Z,15.65
2019-03-15T10:43:02.751Z,11.87
2019-03-15T10:48:24.234Z,11.09
2019-03-15T10:53:17.545Z,10.96
2019-03-15T10:58:25.154Z,9.60
2019-03-15T11:03:32.793Z,9.93
2019-03-15T11:08:40.386Z,10.14
2019-03-15T11:13:48.050Z,10.55
2019-03-15T11:18:55.658Z,14.73
2019-03-15T11:24:03.398Z,14.49
2019-03-15T11:29:10.998Z,11.83
2019-03-15T11:34:18.681Z,9.14
2019-03-15T11:39:26.269Z,10.81
2019-03-15T11:44:33.882Z,10.85
2019-03-15T11:49:41.485Z,11.49
2019-03-15T11:54:49.947Z,12.07
2019-03-15T11:59:56.353Z,12.34
2019-03-15T12:05:03.977Z,12.71
2019-03-15T12:10:11.646Z,14.76
2019-03-15T12:15:19.170Z,13.98
2019-03-15T12:20:26.771Z,12.96
2019-03-15T12:25:34.472Z,10.79
2019-03-15T12:30:43.219Z,11.02
2019-03-15T12:35:49.393Z,11.14
2019-03-15T12:40:57.025Z,8.87
2019-03-15T12:46:04.749Z,9.71
2019-03-15T12:51:12.379Z,8.45
2019-03-15T12:56:20.033Z,8.22
2019-03-15T13:01:27.663Z,7.50
2019-03-15T13:06:35.333Z,7.54
2019-03-15T13:11:42.927Z,6.63
2019-03-15T13:16:50.460Z,6.10
2019-03-15T13:21:58.065Z,5.83
2019-03-15T13:27:07.715Z,5.52
2019-03-15T13:32:13.022Z,5.93
2019-03-15T13:37:20.765Z,6.24
2019-03-15T13:42:28.371Z,6.23
2019-03-15T13:47:36.005Z,5.09
2019-03-15T13:52:43.605Z,4.87
2019-03-15T13:57:51.238Z,5.13
2019-03-15T14:02:58.871Z,4.90
2019-03-15T14:08:11.623Z,4.54
2019-03-15T14:13:13.707Z,3.95
2019-03-15T14:18:21.781Z,4.76
2019-03-15T14:23:28.513Z,4.08
2019-03-15T14:28:36.165Z,4.08
2019-03-15T14:33:43.785Z,3.66
2019-03-15T14:38:51.638Z,3.64
2019-03-15T14:43:59.139Z,3.50
2019-03-15T14:49:06.812Z,3.49
2019-03-15T14:54:14.390Z,3.67
2019-03-15T14:59:22.040Z,4.07
2019-03-15T15:04:29.657Z,3.55
2019-03-15T15:09:37.329Z,3.13
2019-03-15T15:14:44.968Z,3.68
2019-03-15T15:19:52.687Z,3.39
2019-03-15T15:25:00.422Z,3.15
2019-03-15T15:30:08.101Z,3.29
2019-03-15T15:35:15.722Z,3.50
2019-03-15T15:40:23.423Z,3.35
2019-03-15T15:45:31.060Z,3.13
2019-03-15T15:50:38.695Z,3.72
2019-03-15T15:55:46.312Z,4.22
2019-03-15T16:00:53.973Z,4.55
2019-03-15T16:06:01.641Z,4.39
2019-03-15T16:11:09.335Z,6.14
2019-03-15T16:16:16.976Z,5.15
2019-03-15T16:21:24.785Z,5.03
2019-03-15T16:26:32.607Z,7.11
2019-03-15T16:31:40.344Z,5.56
2019-03-15T16:36:47.893Z,6.55
2019-03-15T16:41:55.655Z,6.46
2019-03-15T16:47:03.319Z,6.40
2019-03-15T16:52:10.947Z,7.04
2019-03-15T16:57:18.662Z,7.38
2019-03-15T17:02:26.327Z,8.63
2019-03-15T17:07:33.941Z,4.70
2019-03-15T17:12:41.736Z,4.60
2019-03-15T17:17:49.373Z,4.65
2019-03-15T17:22:57.030Z,4.55
2019-03-15T17:28:04.630Z,5.83
2019-03-15T17:33:12.365Z,4.62
2019-03-15T17:38:20.064Z,4.92
2019-03-15T17:43:27.714Z,4.99
2019-03-15T17:48:35.308Z,2.99
2019-03-15T17:53:43.110Z,2.94
2019-03-15T17:58:50.747Z,3.86
2019-03-15T18:03:58.540Z,2.84
2019-03-15T18:09:06.059Z,3.41
2019-03-15T18:14:13.752Z,3.69
2019-03-15T18:19:21.369Z,3.52
2019-03-15T18:24:29.091Z,5.92
2019-03-15T18:29:36.729Z,4.56
2019-03-15T18:34:44.624Z,4.69
2019-03-15T18:39:52.266Z,4.19
2019-03-15T18:45:00.012Z,4.00
2019-03-15T18:50:08.059Z,3.28
2019-03-15T18:55:15.787Z,4.77
2019-03-15T19:00:23.487Z,3.44
2019-03-15T19:05:31.153Z,4.89
2019-03-15T19:10:38.924Z,4.38
2019-03-15T19:15:46.605Z,4.81
2019-03-15T19:20:54.286Z,5.06
2019-03-15T19:26:01.887Z,4.30
2019-03-15T19:31:09.507Z,4.32
2019-03-15T19:36:17.193Z,4.73
2019-03-15T19:41:24.823Z,4.74
2019-03-15T19:46:32.486Z,4.55
2019-03-15T19:51:40.211Z,5.90
2019-03-15T19:56:47.952Z,5.95
2019-03-15T20:01:55.556Z,5.31
2019-03-15T20:07:03.269Z,5.72
2019-03-15T20:12:10.904Z,5.43
2019-03-15T20:17:18.634Z,6.12
2019-03-15T20:22:26.256Z,5.89
2019-03-15T20:27:34.007Z,6.21
2019-03-15T20:32:41.654Z,6.83
2019-03-15T20:37:49.411Z,6.41
2019-03-15T20:42:57.477Z,6.22
2019-03-15T20:48:05.235Z,5.63
2019-03-15T20:53:13.143Z,5.36
2019-03-15T20:58:22.311Z,5.37
2019-03-15T21:03:27.677Z,5.35
2019-03-15T21:08:35.409Z,5.11
2019-03-15T21:13:43.073Z,5.01
2019-03-15T21:18:50.844Z,4.53
2019-03-15T21:23:58.485Z,4.49
2019-03-15T21:29:06.259Z,4.42
2019-03-15T21:34:13.907Z,4.32
2019-03-15T21:39:21.689Z,4.65
2019-03-15T21:44:29.374Z,3.88
2019-03-15T21:49:37.065Z,4.25
2019-03-15T21:54:44.673Z,4.50
2019-03-15T21:59:52.410Z,3.96
2019-03-15T22:05:00.061Z,4.35
2019-03-15T22:10:07.888Z,4.12
2019-03-15T22:15:15.509Z,4.71
2019-03-15T22:20:23.285Z,4.31
2019-03-15T22:25:30.949Z,4.66
2019-03-15T22:30:41.195Z,4.45
2019-03-15T22:35:38.805Z,4.61
2019-03-15T22:40:46.547Z,4.55
2019-03-15T22:45:54.107Z,4.44
2019-03-15T22:51:01.788Z,4.92
2019-03-15T22:56:09.490Z,4.54
2019-03-15T23:01:29.655Z,4.00
2019-03-15T23:06:24.315Z,4.06
2019-03-15T23:11:32.043Z,4.31
2019-03-15T23:16:39.729Z,4.63
2019-03-15T23:21:47.310Z,4.59
2019-03-15T23:26:54.917Z,4.59
2019-03-15T23:32:02.591Z,4.54
2019-03-15T23:37:10.213Z,4.55
2019-03-15T23:42:17.884Z,4.31
2019-03-15T23:47:25.498Z,4.32
2019-03-15T23:52:33.123Z,4.27
2019-03-15T23:57:40.722Z,4.29
